ZLXY/XIY METAR and TAF weather

Enter ICAO airport designator
Station Type Date Time Source
ZLXY METAR 2020/07/02 22:00 UTC NOAA

ZLXY 022200Z 06004MPS 8000 NSC 23/21 Q1006 NOSIG


Station Type Date Time Source
ZLXY Decoded METAR 2020/07/02 22:00 UTC NOAA

Xian/Xianyang, China (ZLXY) 34-26N 108-45E
Jul 02, 2020 - 06:00 PM EDT / 2020.07.02 2200 UTC
Wind: from the ENE (060 degrees) at 9 MPH (8 KT):0
Visibility: 4 mile(s):0
Temperature: 73 F (23 C)
Dew Point: 69 F (21 C)
Relative Humidity: 88%
Pressure (altimeter): 29.71 in. Hg (1006 hPa)
ob: ZLXY 022200Z 06004MPS 8000 NSC 23/21 Q1006 NOSIG
cycle: 22

Station Type Date Time Source
ZLXY TAF 2020/07/02 18:03 UTC NOAA

TAF ZLXY 021509Z 0218/0318 06004MPS 6000 NSC TX34/0308Z TN20/0222Z

Example: see airport list